sensor_id;sensor_type;location;lat;lon;timestamp;temperature;humidity
38582;DHT22;24349;53.720;10.014;2024-03-17T00:00:42;4.20;99.90
38582;DHT22;24349;53.720;10.014;2024-03-17T00:03:08;4.00;99.90
38582;DHT22;24349;53.720;10.014;2024-03-17T00:05:35;4.00;99.90
38582;DHT22;24349;53.720;10.014;2024-03-17T00:08:02;4.00;99.90
38582;DHT22;24349;53.720;10.014;2024-03-17T00:10:30;4.00;99.90
38582;DHT22;24349;53.720;10.014;2024-03-17T00:12:56;4.00;99.90
38582;DHT22;24349;53.720;10.014;2024-03-17T00:15:22;3.90;99.90
38582;DHT22;24349;53.720;10.014;2024-03-17T00:17:48;3.90;99.90
38582;DHT22;24349;53.720;10.014;2024-03-17T00:20:14;3.80;99.90
38582;DHT22;24349;53.720;10.014;2024-03-17T00:22:47;3.80;99.90
38582;DHT22;24349;53.720;10.014;2024-03-17T00:25:13;3.70;99.90
38582;DHT22;24349;53.720;10.014;2024-03-17T00:27:38;3.60;99.90
38582;DHT22;24349;53.720;10.014;2024-03-17T00:30:07;3.50;99.90
38582;DHT22;24349;53.720;10.014;2024-03-17T00:32:40;3.40;99.90
38582;DHT22;24349;53.720;10.014;2024-03-17T00:35:07;3.40;99.90
38582;DHT22;24349;53.720;10.014;2024-03-17T00:37:33;3.40;99.90
38582;DHT22;24349;53.720;10.014;2024-03-17T00:40:01;3.40;99.90
38582;DHT22;24349;53.720;10.014;2024-03-17T00:42:27;3.40;99.90
38582;DHT22;24349;53.720;10.014;2024-03-17T00:44:52;3.40;99.90
38582;DHT22;24349;53.720;10.014;2024-03-17T00:47:18;3.40;99.90
38582;DHT22;24349;53.720;10.014;2024-03-17T00:49:43;3.60;99.90
38582;DHT22;24349;53.720;10.014;2024-03-17T00:52:09;3.70;99.90
38582;DHT22;24349;53.720;10.014;2024-03-17T00:54:35;3.80;99.90
38582;DHT22;24349;53.720;10.014;2024-03-17T00:57:00;3.90;99.90
38582;DHT22;24349;53.720;10.014;2024-03-17T00:59:26;4.00;99.90
38582;DHT22;24349;53.720;10.014;2024-03-17T01:01:52;4.10;99.90
38582;DHT22;24349;53.720;10.014;2024-03-17T01:04:18;4.10;99.90
38582;DHT22;24349;53.720;10.014;2024-03-17T01:06:43;4.10;99.90
38582;DHT22;24349;53.720;10.014;2024-03-17T01:09:09;4.00;99.90
38582;DHT22;24349;53.720;10.014;2024-03-17T01:11:35;4.00;99.90
38582;DHT22;24349;53.720;10.014;2024-03-17T01:14:00;4.10;99.90
38582;DHT22;24349;53.720;10.014;2024-03-17T01:16:26;4.10;99.90
38582;DHT22;24349;53.720;10.014;2024-03-17T01:18:52;4.00;99.90
38582;DHT22;24349;53.720;10.014;2024-03-17T01:21:19;3.90;99.90
38582;DHT22;24349;53.720;10.014;2024-03-17T01:23:45;3.90;99.90
38582;DHT22;24349;53.720;10.014;2024-03-17T01:26:10;3.90;99.90
38582;DHT22;24349;53.720;10.014;2024-03-17T01:28:36;4.00;99.90
38582;DHT22;24349;53.720;10.014;2024-03-17T01:31:06;4.20;99.90
38582;DHT22;24349;53.720;10.014;2024-03-17T01:33:31;4.20;99.90
38582;DHT22;24349;53.720;10.014;2024-03-17T01:35:57;4.20;99.90
38582;DHT22;24349;53.720;10.014;2024-03-17T01:38:23;4.30;99.90
38582;DHT22;24349;53.720;10.014;2024-03-17T01:40:48;4.30;99.90
38582;DHT22;24349;53.720;10.014;2024-03-17T01:43:14;4.40;99.90
38582;DHT22;24349;53.720;10.014;2024-03-17T01:45:39;4.40;99.90
38582;DHT22;24349;53.720;10.014;2024-03-17T01:48:11;4.40;99.90
38582;DHT22;24349;53.720;10.014;2024-03-17T01:50:38;4.40;99.90
38582;DHT22;24349;53.720;10.014;2024-03-17T01:53:05;4.40;99.90
38582;DHT22;24349;53.720;10.014;2024-03-17T01:55:39;4.20;99.90
38582;DHT22;24349;53.720;10.014;2024-03-17T01:58:05;4.10;99.90
38582;DHT22;24349;53.720;10.014;2024-03-17T02:00:35;4.10;99.90
38582;DHT22;24349;53.720;10.014;2024-03-17T02:03:06;4.10;99.90
38582;DHT22;24349;53.720;10.014;2024-03-17T02:05:32;4.20;99.90
38582;DHT22;24349;53.720;10.014;2024-03-17T02:07:59;4.20;99.90
38582;DHT22;24349;53.720;10.014;2024-03-17T02:10:25;4.20;99.90
38582;DHT22;24349;53.720;10.014;2024-03-17T02:12:51;4.10;99.90
38582;DHT22;24349;53.720;10.014;2024-03-17T02:15:17;4.00;99.90
38582;DHT22;24349;53.720;10.014;2024-03-17T02:17:43;4.00;99.90
38582;DHT22;24349;53.720;10.014;2024-03-17T02:20:09;3.90;99.90
38582;DHT22;24349;53.720;10.014;2024-03-17T02:22:38;3.90;99.90
38582;DHT22;24349;53.720;10.014;2024-03-17T02:25:04;3.80;99.90
38582;DHT22;24349;53.720;10.014;2024-03-17T02:27:33;3.80;99.90
38582;DHT22;24349;53.720;10.014;2024-03-17T02:29:59;3.70;99.90
38582;DHT22;24349;53.720;10.014;2024-03-17T02:32:25;3.70;99.90
38582;DHT22;24349;53.720;10.014;2024-03-17T02:34:53;3.60;99.90
38582;DHT22;24349;53.720;10.014;2024-03-17T02:37:19;3.60;99.90
38582;DHT22;24349;53.720;10.014;2024-03-17T02:39:44;3.60;99.90
38582;DHT22;24349;53.720;10.014;2024-03-17T02:42:10;3.50;99.90
38582;DHT22;24349;53.720;10.014;2024-03-17T02:44:38;3.40;99.90
38582;DHT22;24349;53.720;10.014;2024-03-17T02:47:04;3.30;99.90
38582;DHT22;24349;53.720;10.014;2024-03-17T02:49:31;3.30;99.90
38582;DHT22;24349;53.720;10.014;2024-03-17T02:52:03;3.20;99.90
38582;DHT22;24349;53.720;10.014;2024-03-17T02:54:30;3.20;99.90
38582;DHT22;24349;53.720;10.014;2024-03-17T02:56:56;3.20;99.90
38582;DHT22;24349;53.720;10.014;2024-03-17T02:59:21;3.10;99.90
38582;DHT22;24349;53.720;10.014;2024-03-17T03:01:47;3.20;99.90
38582;DHT22;24349;53.720;10.014;2024-03-17T03:04:12;3.10;99.90
38582;DHT22;24349;53.720;10.014;2024-03-17T03:06:38;3.10;99.90
38582;DHT22;24349;53.720;10.014;2024-03-17T03:09:04;3.00;99.90
38582;DHT22;24349;53.720;10.014;2024-03-17T03:11:38;2.90;99.90
38582;DHT22;24349;53.720;10.014;2024-03-17T03:14:04;2.70;99.90
38582;DHT22;24349;53.720;10.014;2024-03-17T03:16:30;2.60;99.90
38582;DHT22;24349;53.720;10.014;2024-03-17T03:18:55;2.60;99.90
38582;DHT22;24349;53.720;10.014;2024-03-17T03:21:21;2.70;99.90
38582;DHT22;24349;53.720;10.014;2024-03-17T03:23:47;2.80;99.90
38582;DHT22;24349;53.720;10.014;2024-03-17T03:26:13;2.90;99.90
38582;DHT22;24349;53.720;10.014;2024-03-17T03:28:38;2.90;99.90
38582;DHT22;24349;53.720;10.014;2024-03-17T03:31:04;2.90;99.90
38582;DHT22;24349;53.720;10.014;2024-03-17T03:33:30;2.80;99.90
38582;DHT22;24349;53.720;10.014;2024-03-17T03:35:56;2.70;99.90
38582;DHT22;24349;53.720;10.014;2024-03-17T03:38:22;2.60;99.90
38582;DHT22;24349;53.720;10.014;2024-03-17T03:40:48;2.60;99.90
38582;DHT22;24349;53.720;10.014;2024-03-17T03:43:14;2.50;99.90
38582;DHT22;24349;53.720;10.014;2024-03-17T03:45:40;2.40;99.90
38582;DHT22;24349;53.720;10.014;2024-03-17T03:48:06;2.50;99.90
38582;DHT22;24349;53.720;10.014;2024-03-17T03:50:34;2.50;99.90
38582;DHT22;24349;53.720;10.014;2024-03-17T03:52:59;2.40;99.90
38582;DHT22;24349;53.720;10.014;2024-03-17T03:55:25;2.40;99.90
38582;DHT22;24349;53.720;10.014;2024-03-17T03:57:51;2.40;99.90
38582;DHT22;24349;53.720;10.014;2024-03-17T04:00:20;2.40;99.90
38582;DHT22;24349;53.720;10.014;2024-03-17T04:02:51;2.30;99.90
38582;DHT22;24349;53.720;10.014;2024-03-17T04:05:18;2.30;99.90
38582;DHT22;24349;53.720;10.014;2024-03-17T04:07:45;2.30;99.90
38582;DHT22;24349;53.720;10.014;2024-03-17T04:10:12;2.40;99.90
38582;DHT22;24349;53.720;10.014;2024-03-17T04:12:38;2.50;99.90
38582;DHT22;24349;53.720;10.014;2024-03-17T04:15:04;2.70;99.90
38582;DHT22;24349;53.720;10.014;2024-03-17T04:17:31;2.80;99.90
38582;DHT22;24349;53.720;10.014;2024-03-17T04:19:58;2.90;99.90
38582;DHT22;24349;53.720;10.014;2024-03-17T04:22:24;2.90;99.90
38582;DHT22;24349;53.720;10.014;2024-03-17T04:24:50;3.00;99.90
38582;DHT22;24349;53.720;10.014;2024-03-17T04:27:24;3.00;99.90
38582;DHT22;24349;53.720;10.014;2024-03-17T04:29:53;3.00;99.90
38582;DHT22;24349;53.720;10.014;2024-03-17T04:32:22;2.90;99.90
38582;DHT22;24349;53.720;10.014;2024-03-17T04:34:48;2.90;99.90
38582;DHT22;24349;53.720;10.014;2024-03-17T04:37:14;2.80;99.90
38582;DHT22;24349;53.720;10.014;2024-03-17T04:39:40;2.60;99.90
38582;DHT22;24349;53.720;10.014;2024-03-17T04:42:08;2.60;99.90
38582;DHT22;24349;53.720;10.014;2024-03-17T04:44:34;2.70;99.90
38582;DHT22;24349;53.720;10.014;2024-03-17T04:47:00;2.80;99.90
38582;DHT22;24349;53.720;10.014;2024-03-17T04:49:26;2.90;99.90
38582;DHT22;24349;53.720;10.014;2024-03-17T04:51:51;2.90;99.90
38582;DHT22;24349;53.720;10.014;2024-03-17T04:54:17;2.90;99.90
38582;DHT22;24349;53.720;10.014;2024-03-17T04:56:42;2.90;99.90
38582;DHT22;24349;53.720;10.014;2024-03-17T04:59:08;2.90;99.90
38582;DHT22;24349;53.720;10.014;2024-03-17T05:01:34;2.90;99.90
38582;DHT22;24349;53.720;10.014;2024-03-17T05:04:03;2.80;99.90
38582;DHT22;24349;53.720;10.014;2024-03-17T05:06:29;2.50;99.90
38582;DHT22;24349;53.720;10.014;2024-03-17T05:08:55;2.40;99.90
38582;DHT22;24349;53.720;10.014;2024-03-17T05:11:21;2.40;99.90
38582;DHT22;24349;53.720;10.014;2024-03-17T05:13:46;2.40;99.90
38582;DHT22;24349;53.720;10.014;2024-03-17T05:16:12;2.40;99.90
38582;DHT22;24349;53.720;10.014;2024-03-17T05:18:37;2.40;99.90
38582;DHT22;24349;53.720;10.014;2024-03-17T05:21:06;2.40;99.90
38582;DHT22;24349;53.720;10.014;2024-03-17T05:23:33;2.30;99.90
38582;DHT22;24349;53.720;10.014;2024-03-17T05:26:00;2.20;99.90
38582;DHT22;24349;53.720;10.014;2024-03-17T05:28:27;2.20;99.90
38582;DHT22;24349;53.720;10.014;2024-03-17T05:30:53;2.10;99.90
38582;DHT22;24349;53.720;10.014;2024-03-17T05:33:22;2.20;99.90
38582;DHT22;24349;53.720;10.014;2024-03-17T05:35:55;2.10;99.90
38582;DHT22;24349;53.720;10.014;2024-03-17T05:38:21;2.10;99.90
38582;DHT22;24349;53.720;10.014;2024-03-17T05:41:01;2.10;99.90
38582;DHT22;24349;53.720;10.014;2024-03-17T05:43:27;2.10;99.90
38582;DHT22;24349;53.720;10.014;2024-03-17T05:45:54;2.10;99.90
38582;DHT22;24349;53.720;10.014;2024-03-17T05:48:22;2.10;99.90
38582;DHT22;24349;53.720;10.014;2024-03-17T05:50:47;2.10;99.90
38582;DHT22;24349;53.720;10.014;2024-03-17T05:53:13;2.00;99.90
38582;DHT22;24349;53.720;10.014;2024-03-17T05:55:39;1.90;99.90
38582;DHT22;24349;53.720;10.014;2024-03-17T05:58:06;2.00;99.90
38582;DHT22;24349;53.720;10.014;2024-03-17T06:00:35;2.20;99.90
38582;DHT22;24349;53.720;10.014;2024-03-17T06:03:00;2.30;99.90
38582;DHT22;24349;53.720;10.014;2024-03-17T06:05:27;2.50;99.90
38582;DHT22;24349;53.720;10.014;2024-03-17T06:07:52;2.60;99.90
38582;DHT22;24349;53.720;10.014;2024-03-17T06:10:18;2.80;99.90
38582;DHT22;24349;53.720;10.014;2024-03-17T06:12:43;2.90;99.90
38582;DHT22;24349;53.720;10.014;2024-03-17T06:15:09;3.10;99.90
38582;DHT22;24349;53.720;10.014;2024-03-17T06:17:36;3.40;99.90
38582;DHT22;24349;53.720;10.014;2024-03-17T06:20:01;3.80;99.90
38582;DHT22;24349;53.720;10.014;2024-03-17T06:22:28;3.90;99.90
38582;DHT22;24349;53.720;10.014;2024-03-17T06:24:54;4.20;99.90
38582;DHT22;24349;53.720;10.014;2024-03-17T06:27:19;4.60;99.90
38582;DHT22;24349;53.720;10.014;2024-03-17T06:29:45;5.00;99.90
38582;DHT22;24349;53.720;10.014;2024-03-17T06:32:11;5.60;99.90
38582;DHT22;24349;53.720;10.014;2024-03-17T06:34:37;6.00;99.90
38582;DHT22;24349;53.720;10.014;2024-03-17T06:37:02;6.40;99.90
38582;DHT22;24349;53.720;10.014;2024-03-17T06:39:28;6.90;99.90
38582;DHT22;24349;53.720;10.014;2024-03-17T06:41:54;7.40;99.90
38582;DHT22;24349;53.720;10.014;2024-03-17T06:44:19;8.00;99.90
38582;DHT22;24349;53.720;10.014;2024-03-17T06:46:49;8.50;99.90
38582;DHT22;24349;53.720;10.014;2024-03-17T06:49:15;8.90;99.90
38582;DHT22;24349;53.720;10.014;2024-03-17T06:51:40;9.50;99.90
38582;DHT22;24349;53.720;10.014;2024-03-17T06:54:07;9.60;99.90
38582;DHT22;24349;53.720;10.014;2024-03-17T06:56:34;10.00;99.90
38582;DHT22;24349;53.720;10.014;2024-03-17T06:59:00;9.70;99.90
38582;DHT22;24349;53.720;10.014;2024-03-17T07:01:26;10.10;99.90
38582;DHT22;24349;53.720;10.014;2024-03-17T07:03:52;10.70;99.90
38582;DHT22;24349;53.720;10.014;2024-03-17T07:06:17;11.50;99.90
38582;DHT22;24349;53.720;10.014;2024-03-17T07:08:43;11.60;99.90
38582;DHT22;24349;53.720;10.014;2024-03-17T07:11:08;11.70;99.90
38582;DHT22;24349;53.720;10.014;2024-03-17T07:13:37;12.30;99.90
38582;DHT22;24349;53.720;10.014;2024-03-17T07:16:07;12.80;99.90
38582;DHT22;24349;53.720;10.014;2024-03-17T07:18:33;12.70;99.90
38582;DHT22;24349;53.720;10.014;2024-03-17T07:21:03;12.90;99.90
38582;DHT22;24349;53.720;10.014;2024-03-17T07:23:35;13.50;99.90
38582;DHT22;24349;53.720;10.014;2024-03-17T07:26:02;14.10;99.90
38582;DHT22;24349;53.720;10.014;2024-03-17T07:28:31;14.10;99.90
38582;DHT22;24349;53.720;10.014;2024-03-17T07:30:58;12.60;99.90
38582;DHT22;24349;53.720;10.014;2024-03-17T07:33:24;13.00;99.90
38582;DHT22;24349;53.720;10.014;2024-03-17T07:35:54;14.20;99.90
38582;DHT22;24349;53.720;10.014;2024-03-17T07:38:26;15.00;99.90
38582;DHT22;24349;53.720;10.014;2024-03-17T07:41:00;14.30;99.90
38582;DHT22;24349;53.720;10.014;2024-03-17T07:43:27;13.70;99.90
38582;DHT22;24349;53.720;10.014;2024-03-17T07:48:36;13.10;99.90
38582;DHT22;24349;53.720;10.014;2024-03-17T07:51:04;13.90;99.90
38582;DHT22;24349;53.720;10.014;2024-03-17T07:53:34;13.40;99.90
38582;DHT22;24349;53.720;10.014;2024-03-17T07:56:07;12.80;99.90
38582;DHT22;24349;53.720;10.014;2024-03-17T07:58:35;13.00;99.90
38582;DHT22;24349;53.720;10.014;2024-03-17T08:01:02;14.20;99.90
38582;DHT22;24349;53.720;10.014;2024-03-17T08:03:29;15.70;99.90
38582;DHT22;24349;53.720;10.014;2024-03-17T08:05:57;15.30;99.90
38582;DHT22;24349;53.720;10.014;2024-03-17T08:08:23;15.80;99.90
38582;DHT22;24349;53.720;10.014;2024-03-17T08:10:49;15.90;99.90
38582;DHT22;24349;53.720;10.014;2024-03-17T08:13:16;16.90;99.90
38582;DHT22;24349;53.720;10.014;2024-03-17T08:15:42;17.30;99.90
38582;DHT22;24349;53.720;10.014;2024-03-17T08:18:12;17.80;99.90
38582;DHT22;24349;53.720;10.014;2024-03-17T08:20:41;17.70;99.90
38582;DHT22;24349;53.720;10.014;2024-03-17T08:23:09;17.60;99.90
38582;DHT22;24349;53.720;10.014;2024-03-17T08:25:36;18.40;99.90
38582;DHT22;24349;53.720;10.014;2024-03-17T08:28:02;19.00;99.90
38582;DHT22;24349;53.720;10.014;2024-03-17T08:30:28;16.80;99.40
38582;DHT22;24349;53.720;10.014;2024-03-17T08:32:54;16.80;99.90
38582;DHT22;24349;53.720;10.014;2024-03-17T08:35:20;15.80;99.90
38582;DHT22;24349;53.720;10.014;2024-03-17T08:37:46;15.90;99.90
38582;DHT22;24349;53.720;10.014;2024-03-17T08:40:12;16.60;99.90
38582;DHT22;24349;53.720;10.014;2024-03-17T08:42:38;16.40;99.90
38582;DHT22;24349;53.720;10.014;2024-03-17T08:45:04;16.90;99.90
38582;DHT22;24349;53.720;10.014;2024-03-17T08:47:30;16.20;99.90
38582;DHT22;24349;53.720;10.014;2024-03-17T08:49:55;16.20;99.90
38582;DHT22;24349;53.720;10.014;2024-03-17T08:52:21;15.80;99.90
38582;DHT22;24349;53.720;10.014;2024-03-17T08:54:47;16.20;99.90
38582;DHT22;24349;53.720;10.014;2024-03-17T08:57:13;16.10;99.90
38582;DHT22;24349;53.720;10.014;2024-03-17T08:59:39;15.80;99.90
38582;DHT22;24349;53.720;10.014;2024-03-17T09:02:05;16.00;99.90
38582;DHT22;24349;53.720;10.014;2024-03-17T09:04:35;17.00;99.90
38582;DHT22;24349;53.720;10.014;2024-03-17T09:07:00;17.40;99.90
38582;DHT22;24349;53.720;10.014;2024-03-17T09:09:29;17.80;99.90
38582;DHT22;24349;53.720;10.014;2024-03-17T09:11:54;16.80;99.70
38582;DHT22;24349;53.720;10.014;2024-03-17T09:14:20;17.60;99.90
38582;DHT22;24349;53.720;10.014;2024-03-17T09:16:47;18.50;99.90
38582;DHT22;24349;53.720;10.014;2024-03-17T09:19:13;18.60;98.70
38582;DHT22;24349;53.720;10.014;2024-03-17T09:21:38;18.50;97.70
38582;DHT22;24349;53.720;10.014;2024-03-17T09:24:08;18.10;98.50
38582;DHT22;24349;53.720;10.014;2024-03-17T09:26:35;18.90;97.10
38582;DHT22;24349;53.720;10.014;2024-03-17T09:29:01;18.80;99.30
38582;DHT22;24349;53.720;10.014;2024-03-17T09:31:27;19.00;97.60
38582;DHT22;24349;53.720;10.014;2024-03-17T09:33:53;18.70;96.90
38582;DHT22;24349;53.720;10.014;2024-03-17T09:36:18;18.60;96.50
38582;DHT22;24349;53.720;10.014;2024-03-17T09:38:44;18.30;96.70
38582;DHT22;24349;53.720;10.014;2024-03-17T09:41:22;18.30;96.60
38582;DHT22;24349;53.720;10.014;2024-03-17T09:43:52;18.90;95.80
38582;DHT22;24349;53.720;10.014;2024-03-17T09:46:19;18.70;95.80
38582;DHT22;24349;53.720;10.014;2024-03-17T09:48:44;18.30;96.60
38582;DHT22;24349;53.720;10.014;2024-03-17T09:51:19;18.70;96.10
38582;DHT22;24349;53.720;10.014;2024-03-17T09:53:45;18.60;95.20
38582;DHT22;24349;53.720;10.014;2024-03-17T09:56:13;18.50;95.60
38582;DHT22;24349;53.720;10.014;2024-03-17T10:01:12;19.40;94.90
38582;DHT22;24349;53.720;10.014;2024-03-17T10:03:45;18.20;94.10
38582;DHT22;24349;53.720;10.014;2024-03-17T10:06:15;17.70;94.60
38582;DHT22;24349;53.720;10.014;2024-03-17T10:11:11;18.90;94.80
38582;DHT22;24349;53.720;10.014;2024-03-17T10:13:37;20.50;93.80
38582;DHT22;24349;53.720;10.014;2024-03-17T10:16:03;21.50;94.40
38582;DHT22;24349;53.720;10.014;2024-03-17T10:18:29;21.20;95.20
38582;DHT22;24349;53.720;10.014;2024-03-17T10:20:56;21.40;92.40
38582;DHT22;24349;53.720;10.014;2024-03-17T10:23:22;19.50;92.20
38582;DHT22;24349;53.720;10.014;2024-03-17T10:25:48;20.30;93.00
38582;DHT22;24349;53.720;10.014;2024-03-17T10:28:16;20.20;91.70
38582;DHT22;24349;53.720;10.014;2024-03-17T10:30:57;20.40;92.30
38582;DHT22;24349;53.720;10.014;2024-03-17T10:33:24;18.40;91.70
38582;DHT22;24349;53.720;10.014;2024-03-17T10:35:59;15.60;92.70
38582;DHT22;24349;53.720;10.014;2024-03-17T10:38:30;15.30;93.20
38582;DHT22;24349;53.720;10.014;2024-03-17T10:40:57;16.70;94.00
38582;DHT22;24349;53.720;10.014;2024-03-17T10:43:22;18.80;92.60
38582;DHT22;24349;53.720;10.014;2024-03-17T10:45:54;19.50;92.80
38582;DHT22;24349;53.720;10.014;2024-03-17T10:48:21;20.10;91.20
38582;DHT22;24349;53.720;10.014;2024-03-17T10:50:50;20.30;91.30
38582;DHT22;24349;53.720;10.014;2024-03-17T10:53:20;20.70;90.70
38582;DHT22;24349;53.720;10.014;2024-03-17T10:56:14;20.80;91.10
38582;DHT22;24349;53.720;10.014;2024-03-17T10:58:44;19.20;90.60
38582;DHT22;24349;53.720;10.014;2024-03-17T11:01:16;20.10;90.60
38582;DHT22;24349;53.720;10.014;2024-03-17T11:03:43;19.50;87.70
38582;DHT22;24349;53.720;10.014;2024-03-17T11:06:12;20.70;90.80
38582;DHT22;24349;53.720;10.014;2024-03-17T11:08:39;20.30;88.10
38582;DHT22;24349;53.720;10.014;2024-03-17T11:11:07;20.80;89.10
38582;DHT22;24349;53.720;10.014;2024-03-17T11:13:34;20.50;84.90
38582;DHT22;24349;53.720;10.014;2024-03-17T11:16:02;19.80;85.70
38582;DHT22;24349;53.720;10.014;2024-03-17T11:18:34;19.40;87.80
38582;DHT22;24349;53.720;10.014;2024-03-17T11:21:04;20.20;86.80
38582;DHT22;24349;53.720;10.014;2024-03-17T11:23:40;20.20;84.80
38582;DHT22;24349;53.720;10.014;2024-03-17T11:26:07;20.50;84.90
38582;DHT22;24349;53.720;10.014;2024-03-17T11:28:51;20.20;85.40
38582;DHT22;24349;53.720;10.014;2024-03-17T11:34:04;20.50;87.80
38582;DHT22;24349;53.720;10.014;2024-03-17T11:36:35;20.40;85.90
38582;DHT22;24349;53.720;10.014;2024-03-17T11:39:08;19.80;87.30
38582;DHT22;24349;53.720;10.014;2024-03-17T11:41:47;19.20;86.20
38582;DHT22;24349;53.720;10.014;2024-03-17T11:49:30;18.60;89.90
38582;DHT22;24349;53.720;10.014;2024-03-17T11:52:01;18.40;87.30
38582;DHT22;24349;53.720;10.014;2024-03-17T11:54:37;18.40;86.40
38582;DHT22;24349;53.720;10.014;2024-03-17T11:57:04;18.50;89.00
38582;DHT22;24349;53.720;10.014;2024-03-17T11:59:31;18.70;88.20
38582;DHT22;24349;53.720;10.014;2024-03-17T12:01:57;18.60;85.50
38582;DHT22;24349;53.720;10.014;2024-03-17T12:04:24;18.70;85.50
38582;DHT22;24349;53.720;10.014;2024-03-17T12:06:52;18.80;87.80
38582;DHT22;24349;53.720;10.014;2024-03-17T12:11:46;18.30;87.50
38582;DHT22;24349;53.720;10.014;2024-03-17T12:14:16;18.80;89.30
38582;DHT22;24349;53.720;10.014;2024-03-17T12:19:20;20.30;86.80
38582;DHT22;24349;53.720;10.014;2024-03-17T12:21:52;20.60;85.40
38582;DHT22;24349;53.720;10.014;2024-03-17T12:24:18;20.40;87.70
38582;DHT22;24349;53.720;10.014;2024-03-17T12:26:45;20.40;85.70
38582;DHT22;24349;53.720;10.014;2024-03-17T12:29:30;21.20;86.40
38582;DHT22;24349;53.720;10.014;2024-03-17T12:31:59;22.00;84.80
38582;DHT22;24349;53.720;10.014;2024-03-17T12:34:26;22.70;84.10
38582;DHT22;24349;53.720;10.014;2024-03-17T12:36:53;22.20;83.60
38582;DHT22;24349;53.720;10.014;2024-03-17T12:39:30;22.00;82.40
38582;DHT22;24349;53.720;10.014;2024-03-17T12:44:39;22.90;82.40
38582;DHT22;24349;53.720;10.014;2024-03-17T12:47:11;23.00;81.60
38582;DHT22;24349;53.720;10.014;2024-03-17T12:52:31;23.70;80.40
38582;DHT22;24349;53.720;10.014;2024-03-17T12:54:57;23.70;79.40
38582;DHT22;24349;53.720;10.014;2024-03-17T12:57:44;24.10;79.70
38582;DHT22;24349;53.720;10.014;2024-03-17T13:00:28;23.60;79.20
38582;DHT22;24349;53.720;10.014;2024-03-17T13:02:57;22.90;78.00
38582;DHT22;24349;53.720;10.014;2024-03-17T13:05:23;21.90;78.80
38582;DHT22;24349;53.720;10.014;2024-03-17T13:07:49;21.50;79.10
38582;DHT22;24349;53.720;10.014;2024-03-17T13:10:19;21.90;79.30
38582;DHT22;24349;53.720;10.014;2024-03-17T13:12:46;22.20;79.80
38582;DHT22;24349;53.720;10.014;2024-03-17T13:15:14;22.60;79.70
38582;DHT22;24349;53.720;10.014;2024-03-17T13:17:41;22.30;78.70
38582;DHT22;24349;53.720;10.014;2024-03-17T13:20:12;22.70;79.30
38582;DHT22;24349;53.720;10.014;2024-03-17T13:22:38;22.30;78.50
38582;DHT22;24349;53.720;10.014;2024-03-17T13:25:08;22.40;77.10
38582;DHT22;24349;53.720;10.014;2024-03-17T13:27:34;22.80;79.60
38582;DHT22;24349;53.720;10.014;2024-03-17T13:30:00;21.80;79.70
38582;DHT22;24349;53.720;10.014;2024-03-17T13:32:25;21.00;79.30
38582;DHT22;24349;53.720;10.014;2024-03-17T13:34:52;21.10;77.80
38582;DHT22;24349;53.720;10.014;2024-03-17T13:37:17;21.70;78.50
38582;DHT22;24349;53.720;10.014;2024-03-17T13:39:43;22.50;77.80
38582;DHT22;24349;53.720;10.014;2024-03-17T13:42:08;22.40;78.10
38582;DHT22;24349;53.720;10.014;2024-03-17T13:44:34;22.40;77.00
38582;DHT22;24349;53.720;10.014;2024-03-17T13:47:00;21.30;75.40
38582;DHT22;24349;53.720;10.014;2024-03-17T13:49:29;20.90;75.50
38582;DHT22;24349;53.720;10.014;2024-03-17T13:51:55;21.00;77.70
38582;DHT22;24349;53.720;10.014;2024-03-17T13:54:20;21.70;76.90
38582;DHT22;24349;53.720;10.014;2024-03-17T13:56:49;22.60;74.40
38582;DHT22;24349;53.720;10.014;2024-03-17T13:59:16;22.90;73.80
38582;DHT22;24349;53.720;10.014;2024-03-17T14:01:44;22.90;75.30
38582;DHT22;24349;53.720;10.014;2024-03-17T14:04:13;23.40;74.70
38582;DHT22;24349;53.720;10.014;2024-03-17T14:06:41;23.20;74.10
38582;DHT22;24349;53.720;10.014;2024-03-17T14:09:07;21.70;73.70
38582;DHT22;24349;53.720;10.014;2024-03-17T14:11:36;19.90;76.00
38582;DHT22;24349;53.720;10.014;2024-03-17T14:14:02;19.40;76.90
38582;DHT22;24349;53.720;10.014;2024-03-17T14:16:29;20.20;77.60
38582;DHT22;24349;53.720;10.014;2024-03-17T14:18:57;18.90;76.80
38582;DHT22;24349;53.720;10.014;2024-03-17T14:21:22;17.50;78.70
38582;DHT22;24349;53.720;10.014;2024-03-17T14:23:48;16.50;79.80
38582;DHT22;24349;53.720;10.014;2024-03-17T14:26:13;15.90;81.70
38582;DHT22;24349;53.720;10.014;2024-03-17T14:28:40;14.00;82.90
38582;DHT22;24349;53.720;10.014;2024-03-17T14:31:06;13.40;86.70
38582;DHT22;24349;53.720;10.014;2024-03-17T14:33:31;13.20;85.70
38582;DHT22;24349;53.720;10.014;2024-03-17T14:35:57;13.10;86.10
38582;DHT22;24349;53.720;10.014;2024-03-17T14:38:23;12.90;86.50
38582;DHT22;24349;53.720;10.014;2024-03-17T14:40:55;12.70;86.70
38582;DHT22;24349;53.720;10.014;2024-03-17T14:43:21;12.50;88.90
38582;DHT22;24349;53.720;10.014;2024-03-17T14:45:46;12.40;87.20
38582;DHT22;24349;53.720;10.014;2024-03-17T14:48:12;11.90;88.70
38582;DHT22;24349;53.720;10.014;2024-03-17T14:50:41;11.90;90.20
38582;DHT22;24349;53.720;10.014;2024-03-17T14:53:06;11.80;88.80
38582;DHT22;24349;53.720;10.014;2024-03-17T14:55:32;11.40;90.30
38582;DHT22;24349;53.720;10.014;2024-03-17T14:58:00;11.30;89.50
38582;DHT22;24349;53.720;10.014;2024-03-17T15:00:28;11.30;90.60
38582;DHT22;24349;53.720;10.014;2024-03-17T15:02:56;11.40;90.40
38582;DHT22;24349;53.720;10.014;2024-03-17T15:05:22;11.40;90.60
38582;DHT22;24349;53.720;10.014;2024-03-17T15:07:50;11.40;90.20
38582;DHT22;24349;53.720;10.014;2024-03-17T15:10:16;11.40;90.80
38582;DHT22;24349;53.720;10.014;2024-03-17T15:12:49;11.90;90.60
38582;DHT22;24349;53.720;10.014;2024-03-17T15:15:15;12.40;90.10
38582;DHT22;24349;53.720;10.014;2024-03-17T15:17:41;12.80;87.80
38582;DHT22;24349;53.720;10.014;2024-03-17T15:20:10;12.80;89.80
38582;DHT22;24349;53.720;10.014;2024-03-17T15:22:46;13.00;89.80
38582;DHT22;24349;53.720;10.014;2024-03-17T15:25:12;13.60;89.00
38582;DHT22;24349;53.720;10.014;2024-03-17T15:27:40;14.00;87.30
38582;DHT22;24349;53.720;10.014;2024-03-17T15:30:07;13.80;85.80
38582;DHT22;24349;53.720;10.014;2024-03-17T15:32:32;13.80;87.70
38582;DHT22;24349;53.720;10.014;2024-03-17T15:34:58;13.40;85.80
38582;DHT22;24349;53.720;10.014;2024-03-17T15:37:26;13.10;87.50
38582;DHT22;24349;53.720;10.014;2024-03-17T15:39:51;13.40;88.20
38582;DHT22;24349;53.720;10.014;2024-03-17T15:42:17;13.10;86.70
38582;DHT22;24349;53.720;10.014;2024-03-17T15:44:45;12.50;86.20
38582;DHT22;24349;53.720;10.014;2024-03-17T15:47:10;12.00;89.00
38582;DHT22;24349;53.720;10.014;2024-03-17T15:49:36;11.80;89.80